Time;durP1;ratioP1;P1;durP2;ratioP2;P2;SDS_P1;SDS_P2;PMS_P1;PMS_P2;Temp;Humidity;BMP_temperature;BMP_pressure;BME280_temperature;BME280_humidity;BME280_pressure;Samples;Min_cycle;Max_cycle;Signal;HPM_P1;HPM_P2
2022/11/28 00:01:18;;;;;;;;;;;8.30;99.90;;;;;;5084918;28;19908;-71
2022/11/28 00:03:44;;;;;;;;;;;8.30;99.90;;;;;;5077291;28;20432;-72
2022/11/28 00:06:09;;;;;;;;;;;8.30;99.90;;;;;;5078840;28;19951;-72
2022/11/28 00:08:35;;;;;;;;;;;8.30;99.90;;;;;;5078461;28;19920;-71
2022/11/28 00:11:05;;;;;;;;;;;8.30;99.90;;;;;;5084021;28;19931;-71
2022/11/28 00:13:31;;;;;;;;;;;8.20;99.90;;;;;;5123022;27;20423;-72
2022/11/28 00:16:00;;;;;;;;;;;8.20;99.90;;;;;;5109610;28;20423;-72
2022/11/28 00:18:26;;;;;;;;;;;8.20;99.90;;;;;;5091404;28;19999;-72
2022/11/28 00:20:57;;;;;;;;;;;8.10;99.90;;;;;;5097150;28;19934;-71
2022/11/28 00:23:23;;;;;;;;;;;8.10;99.90;;;;;;5097650;28;19931;-71
2022/11/28 00:25:56;;;;;;;;;;;8.20;99.90;;;;;;5082204;28;19908;-72
2022/11/28 00:28:21;;;;;;;;;;;8.20;99.90;;;;;;5076808;28;19909;-72
2022/11/28 00:30:47;;;;;;;;;;;8.10;99.90;;;;;;5076712;28;20365;-71
2022/11/28 00:33:12;;;;;;;;;;;8.10;99.90;;;;;;5077886;28;19908;-72
2022/11/28 00:35:38;;;;;;;;;;;8.10;99.90;;;;;;5073358;28;19913;-71
2022/11/28 00:38:04;;;;;;;;;;;8.10;99.90;;;;;;5073510;28;19931;-72
2022/11/28 00:40:30;;;;;;;;;;;8.00;99.90;;;;;;5073439;28;19917;-71
2022/11/28 00:42:55;;;;;;;;;;;8.10;99.90;;;;;;5075477;28;19908;-72
2022/11/28 00:45:21;;;;;;;;;;;8.10;99.90;;;;;;5076443;28;19920;-72
2022/11/28 00:47:48;;;;;;;;;;;8.00;99.90;;;;;;5084549;28;19918;-72
2022/11/28 00:50:14;;;;;;;;;;;8.00;99.90;;;;;;5074967;28;19919;-73
2022/11/28 00:52:39;;;;;;;;;;;8.00;99.90;;;;;;5097275;27;20393;-73
2022/11/28 00:55:05;;;;;;;;;;;7.90;99.90;;;;;;5069622;28;19935;-73
2022/11/28 00:57:31;;;;;;;;;;;7.90;99.90;;;;;;5096959;27;19924;-75
2022/11/28 00:59:57;;;;;;;;;;;8.00;99.90;;;;;;5071330;28;19966;-73
2022/11/28 01:02:23;;;;;;;;;;;8.00;99.90;;;;;;5078359;28;19912;-73
2022/11/28 01:04:48;;;;;;;;;;;8.00;99.90;;;;;;5099339;27;19912;-74
2022/11/28 01:07:14;;;;;;;;;;;8.00;99.90;;;;;;5081811;28;19919;-74
2022/11/28 01:09:40;;;;;;;;;;;8.00;99.90;;;;;;5065569;28;19912;-73
2022/11/28 01:12:06;;;;;;;;;;;8.00;99.90;;;;;;5096541;27;19997;-73
2022/11/28 01:14:32;;;;;;;;;;;8.00;99.90;;;;;;5082013;28;20399;-73
2022/11/28 01:16:57;;;;;;;;;;;8.00;99.90;;;;;;5068295;28;19995;-73
2022/11/28 01:19:23;;;;;;;;;;;7.90;99.90;;;;;;5064970;28;19913;-73
2022/11/28 01:21:49;;;;;;;;;;;7.90;99.90;;;;;;5063705;28;20002;-72
2022/11/28 01:24:15;;;;;;;;;;;7.90;99.90;;;;;;5081928;28;19966;-73
2022/11/28 01:26:41;;;;;;;;;;;7.80;99.90;;;;;;5095827;27;20337;-73
2022/11/28 01:29:07;;;;;;;;;;;7.90;99.90;;;;;;5097352;27;19963;-75
2022/11/28 01:31:33;;;;;;;;;;;7.80;99.90;;;;;;5102923;27;19916;-73
2022/11/28 01:33:58;;;;;;;;;;;7.80;99.90;;;;;;5094186;27;20452;-73
2022/11/28 01:36:25;;;;;;;;;;;7.80;99.90;;;;;;5081272;28;19916;-72
2022/11/28 01:38:51;;;;;;;;;;;7.70;99.90;;;;;;5093674;28;19916;-73
2022/11/28 01:41:19;;;;;;;;;;;7.70;99.90;;;;;;5066949;28;19927;-73
2022/11/28 01:44:14;;;;;;;;;;;7.70;99.90;;;;;;5068796;28;19912;-73
2022/11/28 01:46:40;;;;;;;;;;;7.70;99.90;;;;;;5082582;28;20111;-73
2022/11/28 01:49:14;;;;;;;;;;;7.60;99.90;;;;;;5094015;28;19958;-73
2022/11/28 01:51:41;;;;;;;;;;;7.60;99.90;;;;;;5071089;28;19908;-73
2022/11/28 01:54:07;;;;;;;;;;;7.60;99.90;;;;;;5075330;28;20382;-73
2022/11/28 01:56:42;;;;;;;;;;;7.60;99.90;;;;;;5073965;28;19923;-73
2022/11/28 01:59:09;;;;;;;;;;;7.60;99.90;;;;;;5074962;28;19929;-73
2022/11/28 02:01:36;;;;;;;;;;;7.60;99.90;;;;;;5074773;28;19908;-73
2022/11/28 02:04:02;;;;;;;;;;;7.50;99.90;;;;;;5070597;28;19913;-75
2022/11/28 02:06:27;;;;;;;;;;;7.50;99.90;;;;;;5075076;28;19912;-73
2022/11/28 02:08:54;;;;;;;;;;;7.50;99.90;;;;;;5060207;28;19913;-72
2022/11/28 02:11:31;;;;;;;;;;;7.40;99.90;;;;;;5067570;28;19916;-73
2022/11/28 02:14:06;;;;;;;;;;;7.20;99.90;;;;;;5067506;28;19928;-73
2022/11/28 02:16:49;;;;;;;;;;;7.30;99.90;;;;;;5065940;28;19935;-73
2022/11/28 02:19:15;;;;;;;;;;;7.30;99.90;;;;;;5082324;28;19916;-74
2022/11/28 02:21:46;;;;;;;;;;;7.20;99.90;;;;;;5079673;28;19912;-73
2022/11/28 02:24:15;;;;;;;;;;;7.30;99.90;;;;;;5074671;28;20389;-73
2022/11/28 02:26:59;;;;;;;;;;;7.40;99.90;;;;;;5066174;28;19912;-73
2022/11/28 02:29:46;;;;;;;;;;;7.40;99.90;;;;;;5080255;28;19962;-73
2022/11/28 02:32:24;;;;;;;;;;;7.40;99.90;;;;;;5081144;28;19912;-73
2022/11/28 02:34:49;;;;;;;;;;;7.40;99.90;;;;;;5095828;28;20454;-73
2022/11/28 02:37:24;;;;;;;;;;;7.50;99.90;;;;;;5096117;28;20010;-73
2022/11/28 02:40:13;;;;;;;;;;;7.50;99.90;;;;;;5097432;28;19943;-73
2022/11/28 02:42:39;;;;;;;;;;;7.40;99.90;;;;;;5063257;28;19916;-73
2022/11/28 02:45:04;;;;;;;;;;;7.40;99.90;;;;;;5067555;28;19912;-72
2022/11/28 02:47:32;;;;;;;;;;;7.40;99.90;;;;;;5079982;28;19966;-75
2022/11/28 02:50:09;;;;;;;;;;;7.40;99.90;;;;;;5093089;28;19931;-73
2022/11/28 02:52:38;;;;;;;;;;;7.40;99.90;;;;;;5063898;28;20632;-75
2022/11/28 02:55:04;;;;;;;;;;;7.40;99.90;;;;;;5062822;28;19923;-73
2022/11/28 02:57:34;;;;;;;;;;;7.40;99.90;;;;;;5092593;28;19923;-73
2022/11/28 03:00:00;;;;;;;;;;;7.40;99.90;;;;;;5091051;28;19912;-73
2022/11/28 03:02:28;;;;;;;;;;;7.40;99.90;;;;;;5063364;28;20282;-73
2022/11/28 03:04:56;;;;;;;;;;;7.40;99.90;;;;;;5065523;28;20325;-73
2022/11/28 03:07:30;;;;;;;;;;;7.50;99.90;;;;;;5068239;28;20014;-73
2022/11/28 03:10:02;;;;;;;;;;;7.40;99.90;;;;;;5070390;28;19924;-73
2022/11/28 03:12:34;;;;;;;;;;;7.30;99.90;;;;;;5067965;28;19919;-73
2022/11/28 03:15:01;;;;;;;;;;;7.30;99.90;;;;;;5096188;28;20257;-73
2022/11/28 03:17:39;;;;;;;;;;;7.30;99.90;;;;;;5068684;28;19924;-73
2022/11/28 03:20:30;;;;;;;;;;;7.30;99.90;;;;;;5070037;28;19912;-73
2022/11/28 03:23:16;;;;;;;;;;;7.30;99.90;;;;;;5095398;27;19934;-73
2022/11/28 03:25:54;;;;;;;;;;;7.20;99.90;;;;;;5077068;28;20130;-73
2022/11/28 03:28:41;;;;;;;;;;;7.30;99.90;;;;;;5078976;28;19924;-73
2022/11/28 03:31:13;;;;;;;;;;;7.30;99.90;;;;;;5083366;28;19912;-73
2022/11/28 03:33:42;;;;;;;;;;;7.30;99.90;;;;;;5095169;27;20440;-73
2022/11/28 03:36:14;;;;;;;;;;;7.30;99.90;;;;;;5081372;28;19915;-73
2022/11/28 03:38:41;;;;;;;;;;;7.30;99.90;;;;;;5062363;28;20083;-73
2022/11/28 03:41:13;;;;;;;;;;;7.40;99.90;;;;;;5093465;28;19916;-73
2022/11/28 03:43:45;;;;;;;;;;;7.30;99.90;;;;;;5095498;27;19939;-73
2022/11/28 03:46:15;;;;;;;;;;;7.30;99.90;;;;;;5080704;28;19918;-74
2022/11/28 03:48:48;;;;;;;;;;;7.30;99.90;;;;;;5091217;28;19916;-74
2022/11/28 03:51:15;;;;;;;;;;;7.20;99.90;;;;;;5105221;27;19919;-73
2022/11/28 03:53:47;;;;;;;;;;;7.20;99.90;;;;;;5078547;28;19912;-72
2022/11/28 03:56:42;;;;;;;;;;;7.10;99.90;;;;;;5095775;27;19927;-72
2022/11/28 03:59:11;;;;;;;;;;;7.10;99.90;;;;;;5073830;28;19922;-72
2022/11/28 04:01:48;;;;;;;;;;;7.10;99.90;;;;;;5083431;28;19917;-73
2022/11/28 04:04:20;;;;;;;;;;;7.10;99.90;;;;;;5069677;28;19916;-72
2022/11/28 04:06:57;;;;;;;;;;;7.10;99.90;;;;;;5070038;28;19919;-72
2022/11/28 04:09:43;;;;;;;;;;;7.00;99.90;;;;;;5078991;28;20366;-72
2022/11/28 04:12:14;;;;;;;;;;;7.00;99.90;;;;;;5094986;27;19915;-72
2022/11/28 04:14:46;;;;;;;;;;;7.00;99.90;;;;;;5096668;27;19918;-73
2022/11/28 04:17:24;;;;;;;;;;;7.00;99.90;;;;;;5067775;28;19931;-71
2022/11/28 04:19:51;;;;;;;;;;;7.00;99.90;;;;;;5068206;28;20368;-72
2022/11/28 04:22:27;;;;;;;;;;;7.00;99.90;;;;;;5065302;28;19944;-72
2022/11/28 04:25:02;;;;;;;;;;;7.10;99.90;;;;;;5084858;28;19935;-72
2022/11/28 04:27:33;;;;;;;;;;;7.00;99.90;;;;;;5067908;28;19918;-72
2022/11/28 04:30:00;;;;;;;;;;;7.00;99.90;;;;;;5068305;28;19913;-72
2022/11/28 04:32:28;;;;;;;;;;;7.00;99.90;;;;;;5066999;28;19916;-72
2022/11/28 04:34:55;;;;;;;;;;;7.00;99.90;;;;;;5096103;27;20374;-72
2022/11/28 04:37:24;;;;;;;;;;;7.00;99.90;;;;;;5067642;28;20404;-72
2022/11/28 04:39:50;;;;;;;;;;;7.00;99.90;;;;;;5097530;27;19994;-72
2022/11/28 04:42:18;;;;;;;;;;;7.00;99.90;;;;;;5073578;28;19934;-72
2022/11/28 04:44:50;;;;;;;;;;;7.10;99.90;;;;;;5097859;27;20007;-72
2022/11/28 04:47:16;;;;;;;;;;;7.00;99.90;;;;;;5068316;28;19924;-73
2022/11/28 04:49:42;;;;;;;;;;;6.90;99.90;;;;;;5095833;27;19927;-72
2022/11/28 04:52:11;;;;;;;;;;;6.90;99.90;;;;;;5067623;28;20235;-72
2022/11/28 04:54:45;;;;;;;;;;;6.90;99.90;;;;;;5066018;28;20356;-72
2022/11/28 04:57:30;;;;;;;;;;;6.90;99.90;;;;;;5059635;28;20002;-72
2022/11/28 04:59:56;;;;;;;;;;;7.00;99.90;;;;;;5083294;28;19916;-71
2022/11/28 05:02:23;;;;;;;;;;;7.00;99.90;;;;;;5077392;28;19965;-72
2022/11/28 05:04:51;;;;;;;;;;;7.00;99.90;;;;;;5065102;28;19919;-73
2022/11/28 05:07:17;;;;;;;;;;;7.00;99.90;;;;;;5062480;28;19913;-73
2022/11/28 05:09:42;;;;;;;;;;;7.00;99.90;;;;;;5061312;28;20006;-72
2022/11/28 05:12:08;;;;;;;;;;;7.00;99.90;;;;;;5068526;28;19918;-71
2022/11/28 05:14:34;;;;;;;;;;;6.90;99.90;;;;;;5108387;27;20021;-71
2022/11/28 05:17:00;;;;;;;;;;;6.90;99.90;;;;;;5090708;28;19938;-71
2022/11/28 05:19:25;;;;;;;;;;;7.00;99.90;;;;;;5082966;28;19912;-72
2022/11/28 05:21:52;;;;;;;;;;;7.00;99.90;;;;;;5063229;28;19920;-71
2022/11/28 05:24:18;;;;;;;;;;;7.00;99.90;;;;;;5095863;27;19912;-72
2022/11/28 05:26:43;;;;;;;;;;;7.00;99.90;;;;;;5062096;28;19913;-72
2022/11/28 05:29:09;;;;;;;;;;;7.00;99.90;;;;;;5079254;28;19919;-72
2022/11/28 05:31:36;;;;;;;;;;;7.00;99.90;;;;;;5094165;28;19916;-72
2022/11/28 05:34:01;;;;;;;;;;;7.00;99.90;;;;;;5067376;28;19917;-71
2022/11/28 05:36:27;;;;;;;;;;;6.90;99.90;;;;;;5081168;28;19916;-72
2022/11/28 05:38:53;;;;;;;;;;;6.90;99.90;;;;;;5067135;28;19912;-72
2022/11/28 05:41:26;;;;;;;;;;;6.80;99.90;;;;;;5083951;28;19944;-72
2022/11/28 05:43:52;;;;;;;;;;;6.90;99.90;;;;;;5093816;28;19913;-72
2022/11/28 05:46:18;;;;;;;;;;;6.80;99.90;;;;;;5115869;27;20277;-72
2022/11/28 05:48:44;;;;;;;;;;;6.80;99.90;;;;;;5101616;27;20054;-72
2022/11/28 05:51:10;;;;;;;;;;;6.80;99.90;;;;;;5075556;28;20438;-72
2022/11/28 05:53:36;;;;;;;;;;;6.90;99.90;;;;;;5108791;28;19915;-73
2022/11/28 05:56:15;;;;;;;;;;;6.90;99.90;;;;;;5074767;28;19934;-73
2022/11/28 05:58:41;;;;;;;;;;;6.90;99.90;;;;;;5108184;28;19916;-73
2022/11/28 06:01:11;;;;;;;;;;;6.80;99.90;;;;;;5107791;28;20019;-73
2022/11/28 06:03:37;;;;;;;;;;;6.90;99.90;;;;;;5091998;28;19908;-73
2022/11/28 06:06:03;;;;;;;;;;;6.90;99.90;;;;;;5068949;28;20012;-73
2022/11/28 06:08:29;;;;;;;;;;;6.90;99.90;;;;;;5111619;28;20342;-73
2022/11/28 06:10:56;;;;;;;;;;;6.90;99.90;;;;;;5097652;28;20006;-73
2022/11/28 06:13:21;;;;;;;;;;;6.90;99.90;;;;;;5073998;28;19931;-74
2022/11/28 06:15:47;;;;;;;;;;;7.00;99.90;;;;;;5071800;28;19912;-74
2022/11/28 06:18:12;;;;;;;;;;;7.00;99.90;;;;;;5080808;28;19920;-74
2022/11/28 06:20:38;;;;;;;;;;;7.00;99.90;;;;;;5066797;28;19916;-73
2022/11/28 06:23:04;;;;;;;;;;;7.00;99.90;;;;;;5080597;28;19975;-73
2022/11/28 06:25:29;;;;;;;;;;;7.00;99.90;;;;;;5079118;28;19913;-73
2022/11/28 06:27:55;;;;;;;;;;;6.90;99.90;;;;;;5066112;28;19916;-73
2022/11/28 06:30:21;;;;;;;;;;;6.80;99.90;;;;;;5066749;28;20402;-73
2022/11/28 06:32:46;;;;;;;;;;;6.80;99.90;;;;;;5092321;28;19966;-73
2022/11/28 06:35:12;;;;;;;;;;;6.80;99.90;;;;;;5118646;27;19923;-73
2022/11/28 06:37:38;;;;;;;;;;;6.90;99.90;;;;;;5064384;28;20247;-72
2022/11/28 06:40:04;;;;;;;;;;;6.90;99.90;;;;;;5072450;28;19920;-72
2022/11/28 06:42:29;;;;;;;;;;;6.90;99.90;;;;;;5074439;28;20458;-72
2022/11/28 06:44:55;;;;;;;;;;;6.90;99.90;;;;;;5076756;28;19912;-73
2022/11/28 06:47:21;;;;;;;;;;;6.90;99.90;;;;;;5076730;28;19908;-72
2022/11/28 06:49:47;;;;;;;;;;;7.00;99.90;;;;;;5071394;28;19956;-73
2022/11/28 06:52:13;;;;;;;;;;;6.90;99.90;;;;;;5093557;28;19999;-73
2022/11/28 06:54:38;;;;;;;;;;;6.90;99.90;;;;;;5059877;28;20003;-73
2022/11/28 06:57:04;;;;;;;;;;;7.00;99.90;;;;;;5069908;28;19942;-74
2022/11/28 06:59:29;;;;;;;;;;;7.20;99.90;;;;;;5069734;28;20007;-73
2022/11/28 07:01:56;;;;;;;;;;;7.20;99.90;;;;;;5066892;28;19919;-74
2022/11/28 07:04:22;;;;;;;;;;;7.20;99.90;;;;;;5068877;28;19912;-73
2022/11/28 07:06:48;;;;;;;;;;;7.30;99.90;;;;;;5096957;27;19916;-74
2022/11/28 07:09:13;;;;;;;;;;;7.40;99.90;;;;;;5066310;28;19954;-76
2022/11/28 07:11:40;;;;;;;;;;;7.40;99.90;;;;;;5082642;28;19916;-74
2022/11/28 07:14:17;;;;;;;;;;;7.50;99.90;;;;;;5082083;28;20480;-73
2022/11/28 07:16:43;;;;;;;;;;;7.50;99.90;;;;;;5079162;28;19916;-74
2022/11/28 07:19:11;;;;;;;;;;;7.50;99.90;;;;;;5065400;28;20018;-74
2022/11/28 07:21:37;;;;;;;;;;;7.50;99.90;;;;;;5064413;28;19912;-73
2022/11/28 07:24:02;;;;;;;;;;;7.50;99.90;;;;;;5070428;28;19922;-72
2022/11/28 07:26:28;;;;;;;;;;;7.50;99.90;;;;;;5068040;28;19912;-72
2022/11/28 07:28:56;;;;;;;;;;;7.60;99.90;;;;;;5105101;27;19919;-73
2022/11/28 07:31:27;;;;;;;;;;;7.60;99.90;;;;;;5069105;28;19919;-72
2022/11/28 07:33:53;;;;;;;;;;;7.60;99.90;;;;;;5100053;27;20386;-73
2022/11/28 07:36:20;;;;;;;;;;;7.70;99.90;;;;;;5078804;28;20031;-72
2022/11/28 07:38:50;;;;;;;;;;;7.70;99.90;;;;;;5064404;28;20492;-72
2022/11/28 07:41:16;;;;;;;;;;;7.80;99.90;;;;;;5084675;28;19912;-72
2022/11/28 07:43:42;;;;;;;;;;;8.00;99.90;;;;;;5068495;28;19927;-72
2022/11/28 07:46:09;;;;;;;;;;;8.00;99.90;;;;;;5105105;27;19950;-72
2022/11/28 07:48:35;;;;;;;;;;;8.10;99.90;;;;;;5100664;28;20392;-71
2022/11/28 07:51:05;;;;;;;;;;;8.00;99.90;;;;;;5087721;28;19920;-71
2022/11/28 07:53:31;;;;;;;;;;;8.10;99.90;;;;;;5074151;28;20397;-71
2022/11/28 07:56:00;;;;;;;;;;;8.20;99.90;;;;;;5094463;28;19916;-71
2022/11/28 07:58:25;;;;;;;;;;;8.20;99.90;;;;;;5077304;28;19908;-71
2022/11/28 08:00:51;;;;;;;;;;;8.30;99.90;;;;;;5095066;28;19908;-71
2022/11/28 08:03:16;;;;;;;;;;;8.30;99.90;;;;;;5094868;28;19962;-71
2022/11/28 08:05:48;;;;;;;;;;;8.40;99.90;;;;;;5097213;28;19958;-70
2022/11/28 08:08:17;;;;;;;;;;;8.50;99.90;;;;;;5099514;28;19912;-71
2022/11/28 08:10:43;;;;;;;;;;;8.50;99.90;;;;;;5106719;28;20372;-70
2022/11/28 08:13:10;;;;;;;;;;;8.50;99.90;;;;;;5095021;28;19923;-70
2022/11/28 08:15:36;;;;;;;;;;;8.60;99.90;;;;;;5088181;28;19916;-70
2022/11/28 08:18:03;;;;;;;;;;;8.70;99.90;;;;;;5090885;28;19919;-71
2022/11/28 08:20:34;;;;;;;;;;;8.70;99.90;;;;;;5092984;28;20381;-71
2022/11/28 08:23:00;;;;;;;;;;;8.80;99.90;;;;;;5092448;28;19919;-70
2022/11/28 08:25:26;;;;;;;;;;;9.00;99.90;;;;;;5101664;28;19912;-70
2022/11/28 08:27:53;;;;;;;;;;;9.00;99.90;;;;;;5092668;28;19951;-71
2022/11/28 08:30:18;;;;;;;;;;;9.00;99.90;;;;;;5094942;28;19973;-70
2022/11/28 08:32:44;;;;;;;;;;;9.10;99.90;;;;;;5072115;28;20300;-71
2022/11/28 08:35:09;;;;;;;;;;;9.20;99.90;;;;;;5107079;28;20285;-71
2022/11/28 08:37:36;;;;;;;;;;;9.20;99.90;;;;;;5101716;28;19985;-71
2022/11/28 08:40:03;;;;;;;;;;;9.30;99.90;;;;;;5084766;28;19912;-69
2022/11/28 08:42:30;;;;;;;;;;;9.40;99.90;;;;;;5095367;28;20278;-72
2022/11/28 08:44:56;;;;;;;;;;;9.50;99.90;;;;;;5076924;28;19912;-72
2022/11/28 08:47:22;;;;;;;;;;;9.60;99.90;;;;;;5074678;28;19914;-72
2022/11/28 08:49:47;;;;;;;;;;;9.70;99.90;;;;;;5077233;28;19922;-72
2022/11/28 08:52:13;;;;;;;;;;;9.80;99.90;;;;;;5072446;28;19920;-71
2022/11/28 08:54:40;;;;;;;;;;;9.80;99.90;;;;;;5069835;28;19912;-72
2022/11/28 08:57:05;;;;;;;;;;;9.80;99.90;;;;;;5083039;28;20384;-72
2022/11/28 08:59:31;;;;;;;;;;;9.90;99.90;;;;;;5094403;28;19938;-73
2022/11/28 09:01:57;;;;;;;;;;;10.10;99.90;;;;;;5074414;28;19983;-72
2022/11/28 09:04:23;;;;;;;;;;;10.00;99.90;;;;;;5066971;28;19917;-74
2022/11/28 09:06:49;;;;;;;;;;;10.10;99.90;;;;;;5096530;27;19928;-72
2022/11/28 09:09:15;;;;;;;;;;;10.10;99.90;;;;;;5100580;27;20314;-73
2022/11/28 09:11:40;;;;;;;;;;;10.20;99.90;;;;;;5067333;28;19912;-72
2022/11/28 09:14:06;;;;;;;;;;;10.30;99.90;;;;;;5070291;28;19919;-72
2022/11/28 09:16:32;;;;;;;;;;;10.40;99.90;;;;;;5070402;28;19920;-71
2022/11/28 09:18:58;;;;;;;;;;;10.40;99.90;;;;;;5069287;28;19920;-71
2022/11/28 09:21:24;;;;;;;;;;;10.40;99.90;;;;;;5071136;28;19951;-73
2022/11/28 09:23:50;;;;;;;;;;;10.50;99.90;;;;;;5064710;28;19965;-73
2022/11/28 09:26:17;;;;;;;;;;;10.40;99.90;;;;;;5105213;27;20381;-72
2022/11/28 09:28:43;;;;;;;;;;;10.40;99.90;;;;;;5092972;27;19912;-72
2022/11/28 09:31:10;;;;;;;;;;;10.40;99.90;;;;;;5066917;28;19920;-72
2022/11/28 09:33:47;;;;;;;;;;;10.40;99.90;;;;;;5060265;28;20011;-72
2022/11/28 09:36:13;;;;;;;;;;;10.40;99.90;;;;;;5064003;28;20024;-72
2022/11/28 09:38:39;;;;;;;;;;;10.40;99.90;;;;;;5094521;28;19912;-73
2022/11/28 09:41:34;;;;;;;;;;;10.40;99.90;;;;;;5061129;28;20487;-76
2022/11/28 09:44:13;;;;;;;;;;;10.40;99.90;;;;;;5025297;28;19923;-73
2022/11/28 09:46:39;;;;;;;;;;;10.50;99.90;;;;;;5099550;27;20283;-73
2022/11/28 09:49:15;;;;;;;;;;;10.50;99.90;;;;;;5072426;28;19927;-74
2022/11/28 09:51:48;;;;;;;;;;;10.50;99.90;;;;;;5078009;28;19926;-71
2022/11/28 09:54:33;;;;;;;;;;;10.50;99.90;;;;;;5075111;28;19908;-70
2022/11/28 09:56:59;;;;;;;;;;;10.60;99.90;;;;;;5073720;28;19912;-70
2022/11/28 09:59:26;;;;;;;;;;;10.60;99.90;;;;;;5078861;28;20043;-72
2022/11/28 10:01:58;;;;;;;;;;;10.70;99.90;;;;;;5068181;28;19915;-72
2022/11/28 10:04:36;;;;;;;;;;;10.60;99.90;;;;;;5078772;28;19918;-68
2022/11/28 10:07:23;;;;;;;;;;;10.70;99.90;;;;;;5082279;28;19912;-68
2022/11/28 10:09:52;;;;;;;;;;;10.70;99.90;;;;;;5073124;28;19908;-67
2022/11/28 10:12:24;;;;;;;;;;;10.80;99.90;;;;;;5076895;28;19911;-72
2022/11/28 10:15:05;;;;;;;;;;;10.80;99.90;;;;;;5086634;28;19934;-73
2022/11/28 10:17:30;;;;;;;;;;;10.90;99.90;;;;;;5125322;27;19916;-74
2022/11/28 10:19:59;;;;;;;;;;;10.90;99.90;;;;;;5091118;28;19957;-73
2022/11/28 10:22:35;;;;;;;;;;;10.90;99.90;;;;;;5102539;28;20327;-71
2022/11/28 10:25:03;;;;;;;;;;;11.00;99.90;;;;;;5087071;28;20002;-72
2022/11/28 10:27:32;;;;;;;;;;;11.10;99.90;;;;;;5079044;28;19919;-72
2022/11/28 10:29:58;;;;;;;;;;;11.10;99.90;;;;;;5112805;27;19919;-71
2022/11/28 10:32:30;;;;;;;;;;;11.10;99.90;;;;;;5090410;28;19912;-72
2022/11/28 10:35:14;;;;;;;;;;;11.10;99.90;;;;;;5088458;28;19916;-71
2022/11/28 10:37:41;;;;;;;;;;;11.10;99.90;;;;;;5098862;28;20360;-71
2022/11/28 10:40:22;;;;;;;;;;;11.00;99.90;;;;;;5085127;28;19911;-72
2022/11/28 10:43:00;;;;;;;;;;;11.00;99.90;;;;;;5095640;28;19920;-72
2022/11/28 10:45:41;;;;;;;;;;;11.10;99.90;;;;;;5081539;28;19935;-76
2022/11/28 10:48:13;;;;;;;;;;;11.10;99.90;;;;;;5081856;28;19990;-72
2022/11/28 10:50:49;;;;;;;;;;;11.20;99.90;;;;;;5092106;28;20564;-71
2022/11/28 10:53:21;;;;;;;;;;;11.30;99.90;;;;;;5099645;28;19961;-71
2022/11/28 10:55:56;;;;;;;;;;;11.40;99.90;;;;;;5100370;28;20364;-72
2022/11/28 10:58:25;;;;;;;;;;;11.40;99.90;;;;;;5096995;28;19962;-72
2022/11/28 11:00:54;;;;;;;;;;;11.50;99.90;;;;;;5087454;28;19912;-72
2022/11/28 11:03:24;;;;;;;;;;;11.60;99.90;;;;;;5118325;27;19941;-72
2022/11/28 11:05:50;;;;;;;;;;;11.60;99.90;;;;;;5097198;28;19970;-72
2022/11/28 11:08:21;;;;;;;;;;;11.60;99.90;;;;;;5131681;27;20288;-72
2022/11/28 11:10:48;;;;;;;;;;;11.50;99.90;;;;;;5088402;28;19912;-71
2022/11/28 11:13:16;;;;;;;;;;;11.50;99.90;;;;;;5089040;28;19908;-75
2022/11/28 11:15:41;;;;;;;;;;;11.40;99.90;;;;;;5097862;28;20434;-71
2022/11/28 11:18:27;;;;;;;;;;;11.40;99.90;;;;;;5131691;27;19912;-71
2022/11/28 11:21:16;;;;;;;;;;;11.40;99.90;;;;;;5077979;28;19972;-71
2022/11/28 11:23:42;;;;;;;;;;;11.40;99.90;;;;;;5081683;28;19914;-71
2022/11/28 11:26:19;;;;;;;;;;;11.50;99.90;;;;;;5087631;28;19908;-71
2022/11/28 11:28:46;;;;;;;;;;;11.50;99.90;;;;;;5066071;28;20360;-71
2022/11/28 11:31:15;;;;;;;;;;;11.60;99.90;;;;;;5092156;28;19931;-72
2022/11/28 11:33:41;;;;;;;;;;;11.60;99.90;;;;;;5095927;28;19914;-71
2022/11/28 11:36:19;;;;;;;;;;;11.70;99.90;;;;;;5111142;28;20313;-71
2022/11/28 11:38:44;;;;;;;;;;;11.70;99.90;;;;;;5095001;28;19974;-72
2022/11/28 11:41:27;;;;;;;;;;;11.70;99.90;;;;;;5097276;28;19913;-71
2022/11/28 11:43:53;;;;;;;;;;;11.70;99.90;;;;;;5095624;28;20320;-72
2022/11/28 11:46:19;;;;;;;;;;;11.80;99.90;;;;;;5094445;28;19976;-72
2022/11/28 11:48:44;;;;;;;;;;;12.00;99.90;;;;;;5076051;28;20361;-72
2022/11/28 11:51:24;;;;;;;;;;;12.00;99.90;;;;;;5085872;28;19912;-71
2022/11/28 11:53:59;;;;;;;;;;;12.00;99.90;;;;;;5110797;28;19912;-72
2022/11/28 11:56:27;;;;;;;;;;;11.90;99.90;;;;;;5110460;28;20270;-72
2022/11/28 11:58:53;;;;;;;;;;;11.80;99.90;;;;;;5081457;28;19994;-72
2022/11/28 12:01:20;;;;;;;;;;;11.70;99.90;;;;;;5095661;28;19918;-72
2022/11/28 12:03:53;;;;;;;;;;;11.80;99.90;;;;;;5098426;28;19908;-72
2022/11/28 12:06:22;;;;;;;;;;;11.90;99.90;;;;;;5078520;28;19934;-71
2022/11/28 12:09:14;;;;;;;;;;;11.80;99.90;;;;;;5077823;28;19912;-71
2022/11/28 12:11:43;;;;;;;;;;;11.70;99.90;;;;;;5077460;28;20319;-71
2022/11/28 12:14:24;;;;;;;;;;;11.70;99.90;;;;;;5100036;28;20356;-72
2022/11/28 12:17:05;;;;;;;;;;;11.80;99.90;;;;;;5098186;28;20013;-71
2022/11/28 12:19:37;;;;;;;;;;;11.80;99.90;;;;;;5086611;28;19912;-71
2022/11/28 12:22:15;;;;;;;;;;;11.80;99.90;;;;;;5121411;27;19961;-71
2022/11/28 12:24:50;;;;;;;;;;;11.90;99.90;;;;;;5093781;28;19919;-71
2022/11/28 12:27:16;;;;;;;;;;;12.00;99.90;;;;;;5102967;28;20057;-72
2022/11/28 12:29:47;;;;;;;;;;;11.90;99.90;;;;;;5075687;28;19986;-70
2022/11/28 12:32:49;;;;;;;;;;;11.90;99.90;;;;;;5117007;27;20418;-71
2022/11/28 12:35:14;;;;;;;;;;;11.80;99.90;;;;;;5040668;28;19920;-71
2022/11/28 12:37:44;;;;;;;;;;;11.80;99.90;;;;;;5067102;28;19908;-71
2022/11/28 12:40:18;;;;;;;;;;;11.90;99.90;;;;;;5079030;28;19943;-71
2022/11/28 12:42:53;;;;;;;;;;;11.90;99.90;;;;;;5078690;28;19915;-72
2022/11/28 12:45:38;;;;;;;;;;;11.90;99.90;;;;;;5091078;28;19915;-71
2022/11/28 12:48:03;;;;;;;;;;;11.90;99.90;;;;;;5075425;28;20003;-71
2022/11/28 12:50:38;;;;;;;;;;;12.00;99.90;;;;;;5079481;28;19973;-71
2022/11/28 12:53:25;;;;;;;;;;;11.90;99.90;;;;;;5084661;28;20014;-71
2022/11/28 12:55:54;;;;;;;;;;;12.00;99.90;;;;;;5072289;28;19916;-70
2022/11/28 12:58:28;;;;;;;;;;;11.90;99.90;;;;;;5089705;28;19923;-72
2022/11/28 13:01:12;;;;;;;;;;;12.00;99.90;;;;;;5077427;28;19912;-73
2022/11/28 13:03:47;;;;;;;;;;;12.00;99.90;;;;;;5074208;28;19908;-72
2022/11/28 13:06:23;;;;;;;;;;;12.00;99.90;;;;;;5093121;28;19922;-73
2022/11/28 13:09:27;;;;;;;;;;;12.00;99.90;;;;;;5118688;27;20057;-73
2022/11/28 13:12:12;;;;;;;;;;;12.10;99.90;;;;;;4994770;28;19948;-72
2022/11/28 13:14:47;;;;;;;;;;;12.00;99.90;;;;;;4995114;28;19960;-73
2022/11/28 13:17:25;;;;;;;;;;;12.10;99.90;;;;;;5052573;28;19951;-73
2022/11/28 13:19:59;;;;;;;;;;;12.20;99.90;;;;;;5099327;28;19912;-72
2022/11/28 13:22:32;;;;;;;;;;;12.10;99.90;;;;;;5076264;28;19912;-73
2022/11/28 13:25:17;;;;;;;;;;;12.10;99.90;;;;;;5080713;28;20404;-72
2022/11/28 13:27:57;;;;;;;;;;;12.10;99.90;;;;;;5080667;28;19919;-72
2022/11/28 13:30:27;;;;;;;;;;;12.00;99.90;;;;;;5079168;28;19916;-71
2022/11/28 13:33:05;;;;;;;;;;;11.90;99.90;;;;;;5074976;28;19912;-72
2022/11/28 13:35:31;;;;;;;;;;;11.90;99.90;;;;;;5109300;28;19935;-72
2022/11/28 13:38:15;;;;;;;;;;;12.10;99.90;;;;;;5109967;27;19911;-72
2022/11/28 13:40:46;;;;;;;;;;;12.10;99.90;;;;;;5079532;28;19915;-72
2022/11/28 13:43:36;;;;;;;;;;;12.00;99.90;;;;;;5107660;28;19908;-73
2022/11/28 13:46:02;;;;;;;;;;;11.90;99.90;;;;;;5074965;28;19919;-72
2022/11/28 13:48:36;;;;;;;;;;;11.80;99.90;;;;;;5080111;28;19916;-72
2022/11/28 13:51:02;;;;;;;;;;;11.70;99.90;;;;;;5093286;28;20286;-72
2022/11/28 13:53:28;;;;;;;;;;;11.60;99.90;;;;;;5094764;28;19908;-71
2022/11/28 13:56:14;;;;;;;;;;;11.70;99.90;;;;;;5095038;28;19911;-71
2022/11/28 13:58:39;;;;;;;;;;;11.70;99.90;;;;;;5081465;28;19912;-72
2022/11/28 14:01:08;;;;;;;;;;;11.60;99.90;;;;;;5074038;28;19935;-71
2022/11/28 14:04:00;;;;;;;;;;;11.60;99.90;;;;;;5075009;28;19919;-71
2022/11/28 14:06:31;;;;;;;;;;;11.70;99.90;;;;;;5072269;28;20413;-72
2022/11/28 14:09:04;;;;;;;;;;;11.70;99.90;;;;;;5098591;28;19989;-72
2022/11/28 14:11:33;;;;;;;;;;;11.60;99.90;;;;;;5074107;28;20312;-71
2022/11/28 14:13:59;;;;;;;;;;;11.70;99.90;;;;;;5073282;28;19965;-70
2022/11/28 14:16:32;;;;;;;;;;;11.80;99.90;;;;;;5076391;28;19967;-71
2022/11/28 14:19:16;;;;;;;;;;;11.70;99.90;;;;;;5076039;28;19913;-71
2022/11/28 14:21:47;;;;;;;;;;;11.60;99.90;;;;;;5093912;28;19912;-71
2022/11/28 14:24:16;;;;;;;;;;;11.60;99.90;;;;;;5091645;28;19965;-71
2022/11/28 14:26:42;;;;;;;;;;;11.50;99.90;;;;;;5074562;28;20369;-72
2022/11/28 14:29:23;;;;;;;;;;;11.50;99.90;;;;;;5092921;28;19908;-71
2022/11/28 14:31:51;;;;;;;;;;;11.50;99.90;;;;;;5086589;28;19919;-71
2022/11/28 14:34:36;;;;;;;;;;;11.40;99.90;;;;;;5076333;28;19916;-70
2022/11/28 14:37:25;;;;;;;;;;;11.50;99.90;;;;;;5085542;28;19980;-68
2022/11/28 14:39:52;;;;;;;;;;;11.50;99.90;;;;;;5078552;28;19959;-67
2022/11/28 14:42:34;;;;;;;;;;;11.40;99.90;;;;;;5070748;28;19919;-68
2022/11/28 14:45:01;;;;;;;;;;;11.50;99.90;;;;;;5092684;28;19919;-67